sensor_id;sensor_type;location;lat;lon;timestamp;temperature;humidity
2721;DHT22;1368;49.484;11.112;2023-11-18T00:00:10;5.20;99.90
2721;DHT22;1368;49.484;11.112;2023-11-18T00:02:38;5.20;99.90
2721;DHT22;1368;49.484;11.112;2023-11-18T00:05:04;5.30;99.90
2721;DHT22;1368;49.484;11.112;2023-11-18T00:07:30;5.30;99.90
2721;DHT22;1368;49.484;11.112;2023-11-18T00:09:57;5.20;99.90
2721;DHT22;1368;49.484;11.112;2023-11-18T00:12:23;5.20;99.90
2721;DHT22;1368;49.484;11.112;2023-11-18T00:14:49;5.10;99.90
2721;DHT22;1368;49.484;11.112;2023-11-18T00:17:15;5.10;99.90
2721;DHT22;1368;49.484;11.112;2023-11-18T00:19:41;5.10;99.90
2721;DHT22;1368;49.484;11.112;2023-11-18T00:22:08;5.00;99.90
2721;DHT22;1368;49.484;11.112;2023-11-18T00:24:33;5.00;99.90
2721;DHT22;1368;49.484;11.112;2023-11-18T00:27:00;4.90;99.90
2721;DHT22;1368;49.484;11.112;2023-11-18T00:29:34;4.90;99.90
2721;DHT22;1368;49.484;11.112;2023-11-18T00:32:00;4.90;99.90
2721;DHT22;1368;49.484;11.112;2023-11-18T00:34:26;4.90;99.90
2721;DHT22;1368;49.484;11.112;2023-11-18T00:36:53;4.80;99.90
2721;DHT22;1368;49.484;11.112;2023-11-18T00:39:19;4.60;99.90
2721;DHT22;1368;49.484;11.112;2023-11-18T00:41:45;4.60;99.90
2721;DHT22;1368;49.484;11.112;2023-11-18T00:44:11;4.50;99.90
2721;DHT22;1368;49.484;11.112;2023-11-18T00:46:38;4.50;99.90
2721;DHT22;1368;49.484;11.112;2023-11-18T00:49:04;4.50;99.90
2721;DHT22;1368;49.484;11.112;2023-11-18T00:51:30;4.50;99.90
2721;DHT22;1368;49.484;11.112;2023-11-18T00:53:56;4.50;99.90
2721;DHT22;1368;49.484;11.112;2023-11-18T00:56:21;4.50;99.90
2721;DHT22;1368;49.484;11.112;2023-11-18T00:58:50;4.50;99.90
2721;DHT22;1368;49.484;11.112;2023-11-18T01:01:15;4.40;99.90
2721;DHT22;1368;49.484;11.112;2023-11-18T01:03:45;4.10;99.90
2721;DHT22;1368;49.484;11.112;2023-11-18T01:06:11;3.80;99.90
2721;DHT22;1368;49.484;11.112;2023-11-18T01:08:37;3.80;99.90
2721;DHT22;1368;49.484;11.112;2023-11-18T01:11:02;3.90;99.90
2721;DHT22;1368;49.484;11.112;2023-11-18T01:13:30;4.10;99.90
2721;DHT22;1368;49.484;11.112;2023-11-18T01:15:56;4.20;99.90
2721;DHT22;1368;49.484;11.112;2023-11-18T01:18:22;4.20;99.90
2721;DHT22;1368;49.484;11.112;2023-11-18T01:20:48;4.20;99.90
2721;DHT22;1368;49.484;11.112;2023-11-18T01:23:14;4.20;99.90
2721;DHT22;1368;49.484;11.112;2023-11-18T01:25:39;4.20;99.90
2721;DHT22;1368;49.484;11.112;2023-11-18T01:28:06;4.10;99.90
2721;DHT22;1368;49.484;11.112;2023-11-18T01:30:32;4.10;99.90
2721;DHT22;1368;49.484;11.112;2023-11-18T01:33:01;4.10;99.90
2721;DHT22;1368;49.484;11.112;2023-11-18T01:35:27;4.00;99.90
2721;DHT22;1368;49.484;11.112;2023-11-18T01:37:53;4.10;99.90
2721;DHT22;1368;49.484;11.112;2023-11-18T01:40:20;4.20;99.90
2721;DHT22;1368;49.484;11.112;2023-11-18T01:42:46;4.00;99.90
2721;DHT22;1368;49.484;11.112;2023-11-18T01:45:12;3.40;99.90
2721;DHT22;1368;49.484;11.112;2023-11-18T01:47:39;3.00;99.90
2721;DHT22;1368;49.484;11.112;2023-11-18T01:50:06;3.10;99.90
2721;DHT22;1368;49.484;11.112;2023-11-18T01:52:34;3.20;99.90
2721;DHT22;1368;49.484;11.112;2023-11-18T01:54:59;3.20;99.90
2721;DHT22;1368;49.484;11.112;2023-11-18T01:57:25;3.40;99.90
2721;DHT22;1368;49.484;11.112;2023-11-18T01:59:53;3.30;99.90
2721;DHT22;1368;49.484;11.112;2023-11-18T02:02:19;3.30;99.90
2721;DHT22;1368;49.484;11.112;2023-11-18T02:04:46;3.20;99.90
2721;DHT22;1368;49.484;11.112;2023-11-18T02:07:12;3.20;99.90
2721;DHT22;1368;49.484;11.112;2023-11-18T02:09:41;3.40;99.90
2721;DHT22;1368;49.484;11.112;2023-11-18T02:12:23;3.50;99.90
2721;DHT22;1368;49.484;11.112;2023-11-18T02:14:53;3.60;99.90
2721;DHT22;1368;49.484;11.112;2023-11-18T02:17:21;3.70;99.90
2721;DHT22;1368;49.484;11.112;2023-11-18T02:19:51;3.80;99.90
2721;DHT22;1368;49.484;11.112;2023-11-18T02:22:17;3.60;99.90
2721;DHT22;1368;49.484;11.112;2023-11-18T02:24:43;3.50;99.90
2721;DHT22;1368;49.484;11.112;2023-11-18T02:27:09;3.60;99.90
2721;DHT22;1368;49.484;11.112;2023-11-18T02:29:42;3.60;99.90
2721;DHT22;1368;49.484;11.112;2023-11-18T02:37:39;3.60;99.90
2721;DHT22;1368;49.484;11.112;2023-11-18T02:40:07;3.60;99.90
2721;DHT22;1368;49.484;11.112;2023-11-18T02:42:37;3.50;99.90
2721;DHT22;1368;49.484;11.112;2023-11-18T02:45:05;3.50;99.90
2721;DHT22;1368;49.484;11.112;2023-11-18T02:47:32;3.20;99.90
2721;DHT22;1368;49.484;11.112;2023-11-18T02:49:58;2.90;99.90
2721;DHT22;1368;49.484;11.112;2023-11-18T02:52:31;3.00;99.90
2721;DHT22;1368;49.484;11.112;2023-11-18T02:54:56;3.20;99.90
2721;DHT22;1368;49.484;11.112;2023-11-18T02:57:22;3.10;99.90
2721;DHT22;1368;49.484;11.112;2023-11-18T02:59:47;2.90;99.90
2721;DHT22;1368;49.484;11.112;2023-11-18T03:02:13;2.90;99.90
2721;DHT22;1368;49.484;11.112;2023-11-18T03:04:40;2.80;99.90
2721;DHT22;1368;49.484;11.112;2023-11-18T03:07:09;2.80;99.90
2721;DHT22;1368;49.484;11.112;2023-11-18T03:09:35;2.70;99.90
2721;DHT22;1368;49.484;11.112;2023-11-18T03:12:02;2.70;99.90
2721;DHT22;1368;49.484;11.112;2023-11-18T03:14:27;2.60;99.90
2721;DHT22;1368;49.484;11.112;2023-11-18T03:16:54;2.50;99.90
2721;DHT22;1368;49.484;11.112;2023-11-18T03:19:21;2.50;99.90
2721;DHT22;1368;49.484;11.112;2023-11-18T03:21:51;2.50;99.90
2721;DHT22;1368;49.484;11.112;2023-11-18T03:24:18;2.50;99.90
2721;DHT22;1368;49.484;11.112;2023-11-18T03:26:44;2.60;99.90
2721;DHT22;1368;49.484;11.112;2023-11-18T03:29:09;2.70;99.90
2721;DHT22;1368;49.484;11.112;2023-11-18T03:31:36;2.80;99.90
2721;DHT22;1368;49.484;11.112;2023-11-18T03:34:02;2.60;99.90
2721;DHT22;1368;49.484;11.112;2023-11-18T03:36:27;2.40;99.90
2721;DHT22;1368;49.484;11.112;2023-11-18T03:38:53;2.40;99.90
2721;DHT22;1368;49.484;11.112;2023-11-18T03:41:18;2.50;99.90
2721;DHT22;1368;49.484;11.112;2023-11-18T03:43:45;2.50;99.90
2721;DHT22;1368;49.484;11.112;2023-11-18T03:46:11;2.70;99.90
2721;DHT22;1368;49.484;11.112;2023-11-18T03:48:37;2.60;99.90
2721;DHT22;1368;49.484;11.112;2023-11-18T03:51:02;2.10;99.90
2721;DHT22;1368;49.484;11.112;2023-11-18T03:53:29;1.90;99.90
2721;DHT22;1368;49.484;11.112;2023-11-18T03:55:54;2.00;99.90
2721;DHT22;1368;49.484;11.112;2023-11-18T03:58:20;1.90;99.90
2721;DHT22;1368;49.484;11.112;2023-11-18T04:00:45;1.80;99.90
2721;DHT22;1368;49.484;11.112;2023-11-18T04:03:11;1.70;99.90
2721;DHT22;1368;49.484;11.112;2023-11-18T04:05:37;1.60;99.90
2721;DHT22;1368;49.484;11.112;2023-11-18T04:08:04;1.60;99.90
2721;DHT22;1368;49.484;11.112;2023-11-18T04:10:30;1.60;99.90
2721;DHT22;1368;49.484;11.112;2023-11-18T04:12:56;1.60;99.90
2721;DHT22;1368;49.484;11.112;2023-11-18T04:15:22;1.60;99.90
2721;DHT22;1368;49.484;11.112;2023-11-18T04:17:47;1.70;99.90
2721;DHT22;1368;49.484;11.112;2023-11-18T04:20:13;2.10;99.90
2721;DHT22;1368;49.484;11.112;2023-11-18T04:22:41;2.00;99.90
2721;DHT22;1368;49.484;11.112;2023-11-18T04:25:10;2.20;99.90
2721;DHT22;1368;49.484;11.112;2023-11-18T04:27:37;2.30;99.90
2721;DHT22;1368;49.484;11.112;2023-11-18T04:30:03;2.30;99.90
2721;DHT22;1368;49.484;11.112;2023-11-18T04:32:29;2.20;99.90
2721;DHT22;1368;49.484;11.112;2023-11-18T04:34:57;1.90;99.90
2721;DHT22;1368;49.484;11.112;2023-11-18T04:37:23;1.70;99.90
2721;DHT22;1368;49.484;11.112;2023-11-18T04:39:48;1.50;99.90
2721;DHT22;1368;49.484;11.112;2023-11-18T04:42:14;1.40;99.90
2721;DHT22;1368;49.484;11.112;2023-11-18T04:44:40;1.40;99.90
2721;DHT22;1368;49.484;11.112;2023-11-18T04:47:06;1.40;99.90
2721;DHT22;1368;49.484;11.112;2023-11-18T04:49:32;1.50;99.90
2721;DHT22;1368;49.484;11.112;2023-11-18T04:51:57;1.30;99.90
2721;DHT22;1368;49.484;11.112;2023-11-18T04:54:24;1.30;99.90
2721;DHT22;1368;49.484;11.112;2023-11-18T04:56:50;1.40;99.90
2721;DHT22;1368;49.484;11.112;2023-11-18T04:59:15;1.40;99.90
2721;DHT22;1368;49.484;11.112;2023-11-18T05:01:41;1.30;99.90
2721;DHT22;1368;49.484;11.112;2023-11-18T05:04:07;1.30;99.90
2721;DHT22;1368;49.484;11.112;2023-11-18T05:06:33;1.30;99.90
2721;DHT22;1368;49.484;11.112;2023-11-18T05:08:59;1.50;99.90
2721;DHT22;1368;49.484;11.112;2023-11-18T05:11:24;1.50;99.90
2721;DHT22;1368;49.484;11.112;2023-11-18T05:13:50;1.50;99.90
2721;DHT22;1368;49.484;11.112;2023-11-18T05:16:16;1.30;99.90
2721;DHT22;1368;49.484;11.112;2023-11-18T05:18:41;1.50;99.90
2721;DHT22;1368;49.484;11.112;2023-11-18T05:21:07;1.50;99.90
2721;DHT22;1368;49.484;11.112;2023-11-18T05:23:36;1.80;99.90
2721;DHT22;1368;49.484;11.112;2023-11-18T05:26:01;1.80;99.90
2721;DHT22;1368;49.484;11.112;2023-11-18T05:28:30;2.10;99.90
2721;DHT22;1368;49.484;11.112;2023-11-18T05:30:56;1.90;99.90
2721;DHT22;1368;49.484;11.112;2023-11-18T05:33:23;2.10;99.90
2721;DHT22;1368;49.484;11.112;2023-11-18T05:35:49;2.20;99.90
2721;DHT22;1368;49.484;11.112;2023-11-18T05:38:19;2.30;99.90
2721;DHT22;1368;49.484;11.112;2023-11-18T05:40:47;2.50;99.90
2721;DHT22;1368;49.484;11.112;2023-11-18T05:43:26;2.60;99.90
2721;DHT22;1368;49.484;11.112;2023-11-18T05:45:55;2.30;99.90
2721;DHT22;1368;49.484;11.112;2023-11-18T05:48:43;2.10;99.90
2721;DHT22;1368;49.484;11.112;2023-11-18T05:51:10;2.00;99.90
2721;DHT22;1368;49.484;11.112;2023-11-18T05:53:40;1.80;99.90
2721;DHT22;1368;49.484;11.112;2023-11-18T05:56:06;1.60;99.90
2721;DHT22;1368;49.484;11.112;2023-11-18T05:58:32;1.60;99.90
2721;DHT22;1368;49.484;11.112;2023-11-18T06:00:58;1.60;99.90
2721;DHT22;1368;49.484;11.112;2023-11-18T06:03:23;1.40;99.90
2721;DHT22;1368;49.484;11.112;2023-11-18T06:05:49;1.20;99.90
2721;DHT22;1368;49.484;11.112;2023-11-18T06:08:16;1.00;99.90
2721;DHT22;1368;49.484;11.112;2023-11-18T06:10:42;1.00;99.90
2721;DHT22;1368;49.484;11.112;2023-11-18T06:13:10;0.90;99.90
2721;DHT22;1368;49.484;11.112;2023-11-18T06:15:38;1.00;99.90
2721;DHT22;1368;49.484;11.112;2023-11-18T06:18:04;1.10;99.90
2721;DHT22;1368;49.484;11.112;2023-11-18T06:20:30;1.20;99.90
2721;DHT22;1368;49.484;11.112;2023-11-18T06:22:56;1.30;99.90
2721;DHT22;1368;49.484;11.112;2023-11-18T06:25:22;1.50;99.90
2721;DHT22;1368;49.484;11.112;2023-11-18T06:27:51;1.80;99.90
2721;DHT22;1368;49.484;11.112;2023-11-18T06:30:18;1.60;99.90
2721;DHT22;1368;49.484;11.112;2023-11-18T06:32:45;1.40;99.90
2721;DHT22;1368;49.484;11.112;2023-11-18T06:35:12;1.30;99.90
2721;DHT22;1368;49.484;11.112;2023-11-18T06:37:40;1.50;99.90
2721;DHT22;1368;49.484;11.112;2023-11-18T06:40:06;1.50;99.90
2721;DHT22;1368;49.484;11.112;2023-11-18T06:42:42;1.80;99.90
2721;DHT22;1368;49.484;11.112;2023-11-18T06:45:08;1.90;99.90
2721;DHT22;1368;49.484;11.112;2023-11-18T06:47:35;1.90;99.90
2721;DHT22;1368;49.484;11.112;2023-11-18T06:50:02;1.90;99.90
2721;DHT22;1368;49.484;11.112;2023-11-18T06:52:27;1.80;99.90
2721;DHT22;1368;49.484;11.112;2023-11-18T06:54:54;1.50;99.90
2721;DHT22;1368;49.484;11.112;2023-11-18T06:57:20;1.40;99.90
2721;DHT22;1368;49.484;11.112;2023-11-18T06:59:47;1.30;99.90
2721;DHT22;1368;49.484;11.112;2023-11-18T07:02:12;1.20;99.90
2721;DHT22;1368;49.484;11.112;2023-11-18T07:04:38;1.20;99.90
2721;DHT22;1368;49.484;11.112;2023-11-18T07:07:04;1.30;99.90
2721;DHT22;1368;49.484;11.112;2023-11-18T07:09:29;1.30;99.90
2721;DHT22;1368;49.484;11.112;2023-11-18T07:12:01;1.50;99.90
2721;DHT22;1368;49.484;11.112;2023-11-18T07:14:29;2.10;99.90
2721;DHT22;1368;49.484;11.112;2023-11-18T07:16:54;1.50;99.90
2721;DHT22;1368;49.484;11.112;2023-11-18T07:19:20;1.40;99.90
2721;DHT22;1368;49.484;11.112;2023-11-18T07:21:46;1.50;99.90
2721;DHT22;1368;49.484;11.112;2023-11-18T07:24:12;1.60;99.90
2721;DHT22;1368;49.484;11.112;2023-11-18T07:26:38;1.40;99.90
2721;DHT22;1368;49.484;11.112;2023-11-18T07:29:03;1.40;99.90
2721;DHT22;1368;49.484;11.112;2023-11-18T07:31:29;1.80;99.90
2721;DHT22;1368;49.484;11.112;2023-11-18T07:33:54;1.90;99.90
2721;DHT22;1368;49.484;11.112;2023-11-18T07:36:21;2.00;99.90
2721;DHT22;1368;49.484;11.112;2023-11-18T07:38:47;1.90;99.90
2721;DHT22;1368;49.484;11.112;2023-11-18T07:41:13;2.00;99.90
2721;DHT22;1368;49.484;11.112;2023-11-18T07:43:53;1.80;99.90
2721;DHT22;1368;49.484;11.112;2023-11-18T07:46:20;1.90;99.90
2721;DHT22;1368;49.484;11.112;2023-11-18T07:48:51;2.20;99.90
2721;DHT22;1368;49.484;11.112;2023-11-18T07:51:18;2.60;99.90
2721;DHT22;1368;49.484;11.112;2023-11-18T07:53:47;2.70;99.90
2721;DHT22;1368;49.484;11.112;2023-11-18T07:56:12;2.60;99.90
2721;DHT22;1368;49.484;11.112;2023-11-18T07:58:41;2.60;99.90
2721;DHT22;1368;49.484;11.112;2023-11-18T08:01:13;2.70;99.90
2721;DHT22;1368;49.484;11.112;2023-11-18T08:03:42;2.60;99.90
2721;DHT22;1368;49.484;11.112;2023-11-18T08:06:07;2.50;99.90
2721;DHT22;1368;49.484;11.112;2023-11-18T08:08:34;3.10;99.90
2721;DHT22;1368;49.484;11.112;2023-11-18T08:13:25;2.80;99.90
2721;DHT22;1368;49.484;11.112;2023-11-18T08:15:51;3.30;99.90
2721;DHT22;1368;49.484;11.112;2023-11-18T08:18:17;3.60;99.90
2721;DHT22;1368;49.484;11.112;2023-11-18T08:20:44;3.80;99.90
2721;DHT22;1368;49.484;11.112;2023-11-18T08:23:10;3.90;99.90
2721;DHT22;1368;49.484;11.112;2023-11-18T08:25:35;4.10;99.90
2721;DHT22;1368;49.484;11.112;2023-11-18T08:28:02;4.10;99.90
2721;DHT22;1368;49.484;11.112;2023-11-18T08:30:29;4.20;99.90
2721;DHT22;1368;49.484;11.112;2023-11-18T08:32:54;4.60;99.90
2721;DHT22;1368;49.484;11.112;2023-11-18T08:35:20;4.70;99.90
2721;DHT22;1368;49.484;11.112;2023-11-18T08:37:47;4.40;99.90
2721;DHT22;1368;49.484;11.112;2023-11-18T08:40:13;4.10;99.90
2721;DHT22;1368;49.484;11.112;2023-11-18T08:42:47;4.10;99.90
2721;DHT22;1368;49.484;11.112;2023-11-18T08:45:20;4.10;99.90
2721;DHT22;1368;49.484;11.112;2023-11-18T08:47:56;4.20;99.90
2721;DHT22;1368;49.484;11.112;2023-11-18T08:50:22;4.00;99.90
2721;DHT22;1368;49.484;11.112;2023-11-18T08:52:52;3.80;99.90
2721;DHT22;1368;49.484;11.112;2023-11-18T08:55:28;3.70;99.90
2721;DHT22;1368;49.484;11.112;2023-11-18T08:58:07;3.60;99.90
2721;DHT22;1368;49.484;11.112;2023-11-18T09:00:52;3.60;99.90
2721;DHT22;1368;49.484;11.112;2023-11-18T09:03:24;3.90;99.90
2721;DHT22;1368;49.484;11.112;2023-11-18T09:06:00;4.00;99.90
2721;DHT22;1368;49.484;11.112;2023-11-18T09:08:37;3.90;99.90
2721;DHT22;1368;49.484;11.112;2023-11-18T09:11:16;3.90;99.90
2721;DHT22;1368;49.484;11.112;2023-11-18T09:13:49;4.10;99.90
2721;DHT22;1368;49.484;11.112;2023-11-18T09:16:19;4.20;99.90
2721;DHT22;1368;49.484;11.112;2023-11-18T09:18:48;4.20;99.90
2721;DHT22;1368;49.484;11.112;2023-11-18T09:21:13;4.40;99.90
2721;DHT22;1368;49.484;11.112;2023-11-18T09:23:45;4.70;99.90
2721;DHT22;1368;49.484;11.112;2023-11-18T09:26:13;4.80;99.90
2721;DHT22;1368;49.484;11.112;2023-11-18T09:28:40;5.10;99.90
2721;DHT22;1368;49.484;11.112;2023-11-18T09:31:06;5.00;99.90
2721;DHT22;1368;49.484;11.112;2023-11-18T09:33:37;5.10;99.90
2721;DHT22;1368;49.484;11.112;2023-11-18T09:36:04;5.20;99.90
2721;DHT22;1368;49.484;11.112;2023-11-18T09:38:34;5.40;99.90
2721;DHT22;1368;49.484;11.112;2023-11-18T09:41:07;5.80;99.90
2721;DHT22;1368;49.484;11.112;2023-11-18T09:43:36;6.20;99.90
2721;DHT22;1368;49.484;11.112;2023-11-18T09:46:15;6.30;99.90
2721;DHT22;1368;49.484;11.112;2023-11-18T09:51:41;6.30;99.90
2721;DHT22;1368;49.484;11.112;2023-11-18T09:54:21;6.40;99.90
2721;DHT22;1368;49.484;11.112;2023-11-18T09:57:03;6.20;99.90
2721;DHT22;1368;49.484;11.112;2023-11-18T09:59:54;6.10;99.90
2721;DHT22;1368;49.484;11.112;2023-11-18T10:02:24;5.90;99.90
2721;DHT22;1368;49.484;11.112;2023-11-18T10:04:50;5.90;99.90
2721;DHT22;1368;49.484;11.112;2023-11-18T10:07:24;6.60;99.90
2721;DHT22;1368;49.484;11.112;2023-11-18T10:09:56;6.30;99.90
2721;DHT22;1368;49.484;11.112;2023-11-18T10:12:23;6.40;99.90
2721;DHT22;1368;49.484;11.112;2023-11-18T10:14:49;6.60;99.90
2721;DHT22;1368;49.484;11.112;2023-11-18T10:17:18;7.00;99.90
2721;DHT22;1368;49.484;11.112;2023-11-18T10:19:58;7.30;99.90
2721;DHT22;1368;49.484;11.112;2023-11-18T10:22:29;7.40;99.90
2721;DHT22;1368;49.484;11.112;2023-11-18T10:24:55;7.70;99.90
2721;DHT22;1368;49.484;11.112;2023-11-18T10:27:23;7.80;99.90
2721;DHT22;1368;49.484;11.112;2023-11-18T10:29:50;7.80;99.90
2721;DHT22;1368;49.484;11.112;2023-11-18T10:32:20;7.80;99.90
2721;DHT22;1368;49.484;11.112;2023-11-18T10:34:48;7.90;99.90
2721;DHT22;1368;49.484;11.112;2023-11-18T10:37:16;7.90;99.90
2721;DHT22;1368;49.484;11.112;2023-11-18T10:39:46;8.00;99.90
2721;DHT22;1368;49.484;11.112;2023-11-18T10:42:12;8.10;99.90
2721;DHT22;1368;49.484;11.112;2023-11-18T10:44:37;8.30;99.90
2721;DHT22;1368;49.484;11.112;2023-11-18T10:47:03;8.30;99.90
2721;DHT22;1368;49.484;11.112;2023-11-18T10:49:29;8.80;99.90
2721;DHT22;1368;49.484;11.112;2023-11-18T10:52:02;9.10;99.90
2721;DHT22;1368;49.484;11.112;2023-11-18T10:54:28;9.10;99.90
2721;DHT22;1368;49.484;11.112;2023-11-18T10:56:54;9.20;99.90
2721;DHT22;1368;49.484;11.112;2023-11-18T10:59:22;9.10;99.90
2721;DHT22;1368;49.484;11.112;2023-11-18T11:01:48;9.40;99.90
2721;DHT22;1368;49.484;11.112;2023-11-18T11:04:16;9.60;99.90
2721;DHT22;1368;49.484;11.112;2023-11-18T11:06:46;9.50;99.90
2721;DHT22;1368;49.484;11.112;2023-11-18T11:09:21;9.60;99.90
2721;DHT22;1368;49.484;11.112;2023-11-18T11:11:54;9.70;99.90
2721;DHT22;1368;49.484;11.112;2023-11-18T11:14:22;10.00;99.90
2721;DHT22;1368;49.484;11.112;2023-11-18T11:16:54;9.90;99.90
2721;DHT22;1368;49.484;11.112;2023-11-18T11:22:05;9.60;99.90
2721;DHT22;1368;49.484;11.112;2023-11-18T11:25:19;9.70;99.90
2721;DHT22;1368;49.484;11.112;2023-11-18T11:28:04;10.00;99.90
2721;DHT22;1368;49.484;11.112;2023-11-18T11:30:46;10.40;99.90
2721;DHT22;1368;49.484;11.112;2023-11-18T11:33:27;10.70;99.90
2721;DHT22;1368;49.484;11.112;2023-11-18T11:35:56;10.80;99.90
2721;DHT22;1368;49.484;11.112;2023-11-18T11:38:25;10.90;99.90
2721;DHT22;1368;49.484;11.112;2023-11-18T11:40:53;10.70;99.90
2721;DHT22;1368;49.484;11.112;2023-11-18T11:43:20;10.70;99.90
2721;DHT22;1368;49.484;11.112;2023-11-18T11:45:53;10.90;99.90
2721;DHT22;1368;49.484;11.112;2023-11-18T11:48:21;11.00;99.90
2721;DHT22;1368;49.484;11.112;2023-11-18T11:51:11;11.00;99.90
2721;DHT22;1368;49.484;11.112;2023-11-18T11:53:44;11.00;99.90
2721;DHT22;1368;49.484;11.112;2023-11-18T11:56:11;10.80;99.90
2721;DHT22;1368;49.484;11.112;2023-11-18T11:58:41;10.70;99.90
2721;DHT22;1368;49.484;11.112;2023-11-18T12:01:26;10.70;99.90
2721;DHT22;1368;49.484;11.112;2023-11-18T12:03:59;11.10;99.90
2721;DHT22;1368;49.484;11.112;2023-11-18T12:06:42;11.30;99.90
2721;DHT22;1368;49.484;11.112;2023-11-18T12:09:09;11.30;99.90
2721;DHT22;1368;49.484;11.112;2023-11-18T12:11:38;11.50;99.90
2721;DHT22;1368;49.484;11.112;2023-11-18T12:14:11;11.60;99.90
2721;DHT22;1368;49.484;11.112;2023-11-18T12:17:01;11.60;99.90
2721;DHT22;1368;49.484;11.112;2023-11-18T12:19:38;11.60;99.90
2721;DHT22;1368;49.484;11.112;2023-11-18T12:22:13;11.40;99.90
2721;DHT22;1368;49.484;11.112;2023-11-18T12:24:46;11.00;99.90
2721;DHT22;1368;49.484;11.112;2023-11-18T12:35:27;11.50;99.90
2721;DHT22;1368;49.484;11.112;2023-11-18T12:38:08;11.60;99.90
2721;DHT22;1368;49.484;11.112;2023-11-18T12:40:55;11.60;99.90
2721;DHT22;1368;49.484;11.112;2023-11-18T12:43:47;11.70;99.90
2721;DHT22;1368;49.484;11.112;2023-11-18T12:49:15;11.60;99.90
2721;DHT22;1368;49.484;11.112;2023-11-18T12:51:42;11.60;99.90
2721;DHT22;1368;49.484;11.112;2023-11-18T12:54:09;11.60;99.90
2721;DHT22;1368;49.484;11.112;2023-11-18T12:56:37;11.50;99.90
2721;DHT22;1368;49.484;11.112;2023-11-18T12:59:04;11.40;99.90
2721;DHT22;1368;49.484;11.112;2023-11-18T13:01:32;11.50;99.90
2721;DHT22;1368;49.484;11.112;2023-11-18T13:04:04;11.50;99.90
2721;DHT22;1368;49.484;11.112;2023-11-18T13:06:29;11.60;99.90
2721;DHT22;1368;49.484;11.112;2023-11-18T13:08:55;11.80;99.90
2721;DHT22;1368;49.484;11.112;2023-11-18T13:11:24;11.90;99.90
2721;DHT22;1368;49.484;11.112;2023-11-18T13:13:53;12.00;99.90
2721;DHT22;1368;49.484;11.112;2023-11-18T13:16:19;11.70;99.90
2721;DHT22;1368;49.484;11.112;2023-11-18T13:18:46;11.60;99.90
2721;DHT22;1368;49.484;11.112;2023-11-18T13:21:19;11.50;99.90
2721;DHT22;1368;49.484;11.112;2023-11-18T13:23:46;11.50;99.90
2721;DHT22;1368;49.484;11.112;2023-11-18T13:26:16;11.60;99.90
2721;DHT22;1368;49.484;11.112;2023-11-18T13:28:42;11.50;99.90
2721;DHT22;1368;49.484;11.112;2023-11-18T13:31:10;11.60;99.90
2721;DHT22;1368;49.484;11.112;2023-11-18T13:33:40;11.50;99.90
2721;DHT22;1368;49.484;11.112;2023-11-18T13:36:07;11.40;99.90
2721;DHT22;1368;49.484;11.112;2023-11-18T13:38:36;11.50;99.90
2721;DHT22;1368;49.484;11.112;2023-11-18T13:41:01;11.60;99.90
2721;DHT22;1368;49.484;11.112;2023-11-18T13:43:44;11.60;99.90
2721;DHT22;1368;49.484;11.112;2023-11-18T13:46:11;11.60;99.90
2721;DHT22;1368;49.484;11.112;2023-11-18T13:48:38;12.20;99.90
2721;DHT22;1368;49.484;11.112;2023-11-18T13:51:09;11.70;99.90
2721;DHT22;1368;49.484;11.112;2023-11-18T13:53:39;11.50;99.90
2721;DHT22;1368;49.484;11.112;2023-11-18T13:56:07;11.40;99.90
2721;DHT22;1368;49.484;11.112;2023-11-18T13:58:34;11.40;99.90
2721;DHT22;1368;49.484;11.112;2023-11-18T14:01:00;11.50;99.90
2721;DHT22;1368;49.484;11.112;2023-11-18T14:03:26;11.30;99.90
2721;DHT22;1368;49.484;11.112;2023-11-18T14:05:52;12.00;99.90
2721;DHT22;1368;49.484;11.112;2023-11-18T14:08:18;11.50;99.90
2721;DHT22;1368;49.484;11.112;2023-11-18T14:10:45;11.50;99.90
2721;DHT22;1368;49.484;11.112;2023-11-18T14:13:14;11.40;99.90
2721;DHT22;1368;49.484;11.112;2023-11-18T14:15:42;11.30;99.90
2721;DHT22;1368;49.484;11.112;2023-11-18T14:18:10;11.20;99.90
2721;DHT22;1368;49.484;11.112;2023-11-18T14:20:36;11.00;99.90
2721;DHT22;1368;49.484;11.112;2023-11-18T14:23:02;10.60;99.90
2721;DHT22;1368;49.484;11.112;2023-11-18T14:25:31;10.60;99.90
2721;DHT22;1368;49.484;11.112;2023-11-18T14:27:58;10.70;99.90
2721;DHT22;1368;49.484;11.112;2023-11-18T14:30:23;10.40;99.90
2721;DHT22;1368;49.484;11.112;2023-11-18T14:32:52;9.80;99.90
2721;DHT22;1368;49.484;11.112;2023-11-18T14:35:18;9.60;99.90
2721;DHT22;1368;49.484;11.112;2023-11-18T14:40:48;9.70;99.90
2721;DHT22;1368;49.484;11.112;2023-11-18T14:43:15;9.70;99.90
2721;DHT22;1368;49.484;11.112;2023-11-18T14:45:40;9.40;99.90
2721;DHT22;1368;49.484;11.112;2023-11-18T14:48:06;9.30;99.90
2721;DHT22;1368;49.484;11.112;2023-11-18T14:50:32;9.40;99.90
2721;DHT22;1368;49.484;11.112;2023-11-18T14:53:00;9.40;99.90
2721;DHT22;1368;49.484;11.112;2023-11-18T14:55:27;9.30;99.90
2721;DHT22;1368;49.484;11.112;2023-11-18T14:57:52;9.40;99.90
2721;DHT22;1368;49.484;11.112;2023-11-18T15:00:18;9.40;99.90
2721;DHT22;1368;49.484;11.112;2023-11-18T15:02:57;9.60;99.90
2721;DHT22;1368;49.484;11.112;2023-11-18T15:05:23;9.50;99.90
2721;DHT22;1368;49.484;11.112;2023-11-18T15:07:50;9.50;99.90
2721;DHT22;1368;49.484;11.112;2023-11-18T15:10:17;9.40;99.90
2721;DHT22;1368;49.484;11.112;2023-11-18T15:12:51;9.20;99.90
2721;DHT22;1368;49.484;11.112;2023-11-18T15:15:30;9.30;99.90
2721;DHT22;1368;49.484;11.112;2023-11-18T15:18:05;9.40;99.90
2721;DHT22;1368;49.484;11.112;2023-11-18T15:20:35;9.10;99.90
2721;DHT22;1368;49.484;11.112;2023-11-18T15:26:23;9.20;99.90
2721;DHT22;1368;49.484;11.112;2023-11-18T15:28:49;9.10;99.90
2721;DHT22;1368;49.484;11.112;2023-11-18T15:31:18;9.10;99.90
2721;DHT22;1368;49.484;11.112;2023-11-18T15:33:44;9.20;99.90
2721;DHT22;1368;49.484;11.112;2023-11-18T15:36:12;9.30;99.90
2721;DHT22;1368;49.484;11.112;2023-11-18T15:38:37;9.20;99.90
2721;DHT22;1368;49.484;11.112;2023-11-18T15:41:03;9.10;99.90
2721;DHT22;1368;49.484;11.112;2023-11-18T15:43:29;8.80;99.90
2721;DHT22;1368;49.484;11.112;2023-11-18T15:45:55;8.70;99.90
2721;DHT22;1368;49.484;11.112;2023-11-18T15:48:26;8.50;99.90
2721;DHT22;1368;49.484;11.112;2023-11-18T15:50:52;8.70;99.90
2721;DHT22;1368;49.484;11.112;2023-11-18T15:53:18;8.50;99.90
2721;DHT22;1368;49.484;11.112;2023-11-18T15:55:45;8.40;99.90
2721;DHT22;1368;49.484;11.112;2023-11-18T15:58:12;8.20;99.90
2721;DHT22;1368;49.484;11.112;2023-11-18T16:00:38;8.10;99.90
2721;DHT22;1368;49.484;11.112;2023-11-18T16:03:04;8.00;99.90
2721;DHT22;1368;49.484;11.112;2023-11-18T16:05:34;8.00;99.90
2721;DHT22;1368;49.484;11.112;2023-11-18T16:07:59;8.20;99.90
2721;DHT22;1368;49.484;11.112;2023-11-18T16:10:27;9.20;99.90
2721;DHT22;1368;49.484;11.112;2023-11-18T16:12:57;8.30;99.90
2721;DHT22;1368;49.484;11.112;2023-11-18T16:15:25;8.20;99.90
2721;DHT22;1368;49.484;11.112;2023-11-18T16:17:55;8.30;99.90
2721;DHT22;1368;49.484;11.112;2023-11-18T16:20:24;8.40;99.90
2721;DHT22;1368;49.484;11.112;2023-11-18T16:22:52;8.40;99.90
2721;DHT22;1368;49.484;11.112;2023-11-18T16:25:19;8.50;99.90
2721;DHT22;1368;49.484;11.112;2023-11-18T16:27:52;8.70;99.90
2721;DHT22;1368;49.484;11.112;2023-11-18T16:30:20;8.60;99.90
2721;DHT22;1368;49.484;11.112;2023-11-18T16:32:56;8.70;99.90
2721;DHT22;1368;49.484;11.112;2023-11-18T16:35:22;9.00;99.90
2721;DHT22;1368;49.484;11.112;2023-11-18T16:37:48;8.90;99.90